createdAt,value
2023-08-28T00:01:03.288Z,54.77
2023-08-28T00:03:31.679Z,54.93
2023-08-28T00:05:59.751Z,54.85
2023-08-28T00:08:27.329Z,55.56
2023-08-28T00:10:55.603Z,55.56
2023-08-28T00:13:23.360Z,55.45
2023-08-28T00:15:51.101Z,55.53
2023-08-28T00:18:19.334Z,55.88
2023-08-28T00:20:46.931Z,55.71
2023-08-28T00:23:14.820Z,56.06
2023-08-28T00:25:42.709Z,56.38
2023-08-28T00:28:10.321Z,56.68
2023-08-28T00:30:38.010Z,56.57
2023-08-28T00:33:06.526Z,57.24
2023-08-28T00:35:34.738Z,57.69
2023-08-28T00:38:02.325Z,57.76
2023-08-28T00:40:30.364Z,57.17
2023-08-28T00:42:57.903Z,57.00
2023-08-28T00:45:26.243Z,57.17
2023-08-28T00:47:54.150Z,56.82
2023-08-28T00:50:21.780Z,57.10
2023-08-28T00:52:49.346Z,56.93
2023-08-28T00:55:27.203Z,56.98
2023-08-28T00:57:54.809Z,56.87
2023-08-28T01:00:22.931Z,56.80
2023-08-28T01:02:51.273Z,56.96
2023-08-28T01:05:19.997Z,57.12
2023-08-28T01:08:14.942Z,56.94
2023-08-28T01:10:47.361Z,56.99
2023-08-28T01:13:32.878Z,56.94
2023-08-28T01:16:00.920Z,56.90
2023-08-28T01:18:28.844Z,56.82
2023-08-28T01:20:59.117Z,56.92
2023-08-28T01:23:36.277Z,57.31
2023-08-28T01:26:09.942Z,57.44
2023-08-28T01:28:37.943Z,57.31
2023-08-28T01:31:06.167Z,58.40
2023-08-28T01:33:38.048Z,58.19
2023-08-28T01:36:08.748Z,58.10
2023-08-28T01:38:42.617Z,58.61
2023-08-28T01:41:11.427Z,57.77
2023-08-28T01:43:40.172Z,58.19
2023-08-28T01:46:08.536Z,57.88
2023-08-28T01:48:37.148Z,57.45
2023-08-28T01:51:04.995Z,57.83
2023-08-28T01:53:32.616Z,57.95
2023-08-28T01:56:09.622Z,58.28
2023-08-28T01:58:48.484Z,58.44
2023-08-28T02:01:16.938Z,58.90
2023-08-28T02:03:45.435Z,59.28
2023-08-28T02:06:13.806Z,58.84
2023-08-28T02:08:41.423Z,59.22
2023-08-28T02:11:10.054Z,59.08
2023-08-28T02:13:38.500Z,59.32
2023-08-28T02:16:06.290Z,59.58
2023-08-28T02:18:34.205Z,58.63
2023-08-28T02:21:01.760Z,58.50
2023-08-28T02:23:30.594Z,59.05
2023-08-28T02:25:58.203Z,58.51
2023-08-28T02:28:26.672Z,58.07
2023-08-28T02:30:54.651Z,58.88
2023-08-28T02:33:22.341Z,58.34
2023-08-28T02:35:49.959Z,58.71
2023-08-28T02:38:21.242Z,58.76
2023-08-28T02:40:48.849Z,59.63
2023-08-28T02:43:26.195Z,59.44
2023-08-28T02:45:54.214Z,59.90
2023-08-28T02:48:21.965Z,59.71
2023-08-28T02:50:50.330Z,58.69
2023-08-28T02:53:18.869Z,58.86
2023-08-28T02:56:18.339Z,58.34
2023-08-28T02:58:46.485Z,58.74
2023-08-28T03:01:14.067Z,59.21
2023-08-28T03:03:41.653Z,59.05
2023-08-28T03:06:09.973Z,58.77
2023-08-28T03:08:37.947Z,58.95
2023-08-28T03:11:05.464Z,59.57
2023-08-28T03:13:33.329Z,59.87
2023-08-28T03:16:01.018Z,59.20
2023-08-28T03:18:29.130Z,58.72
2023-08-28T03:20:57.298Z,59.45
2023-08-28T03:23:24.792Z,59.40
2023-08-28T03:25:52.489Z,59.63
2023-08-28T03:28:20.418Z,58.83
2023-08-28T03:31:06.651Z,59.27
2023-08-28T03:33:36.779Z,60.09
2023-08-28T03:36:06.969Z,59.15
2023-08-28T03:38:37.346Z,59.34
2023-08-28T03:41:08.766Z,59.12
2023-08-28T03:43:36.858Z,59.48
2023-08-28T03:46:04.750Z,59.76
2023-08-28T03:48:32.318Z,59.64
2023-08-28T03:51:00.179Z,59.98
2023-08-28T03:53:28.457Z,60.18
2023-08-28T03:55:56.591Z,60.52
2023-08-28T03:58:24.366Z,60.39
2023-08-28T04:00:55.392Z,60.91
2023-08-28T04:03:23.532Z,62.47
2023-08-28T04:05:54.060Z,61.26
2023-08-28T04:08:22.482Z,61.52
2023-08-28T04:10:50.442Z,61.09
2023-08-28T04:13:18.394Z,60.74
2023-08-28T04:15:48.056Z,60.90
2023-08-28T04:18:17.502Z,60.87
2023-08-28T04:20:45.442Z,60.74
2023-08-28T04:23:14.493Z,60.67
2023-08-28T04:25:43.458Z,61.03
2023-08-28T04:28:10.989Z,61.46
2023-08-28T04:30:38.919Z,61.74
2023-08-28T04:33:07.181Z,60.55
2023-08-28T04:35:35.167Z,62.07
2023-08-28T04:38:03.154Z,61.60
2023-08-28T04:40:31.248Z,61.56
2023-08-28T04:42:58.861Z,61.25
2023-08-28T04:45:26.383Z,61.46
2023-08-28T04:47:54.466Z,61.27
2023-08-28T04:50:22.036Z,62.05
2023-08-28T04:52:49.651Z,60.82
2023-08-28T04:55:17.604Z,61.37
2023-08-28T04:57:45.164Z,61.51
2023-08-28T05:00:13.556Z,60.93
2023-08-28T05:02:42.192Z,60.67
2023-08-28T05:05:10.628Z,61.02
2023-08-28T05:07:44.654Z,61.38
2023-08-28T05:10:18.219Z,62.67
2023-08-28T05:12:45.939Z,61.35
2023-08-28T05:15:14.309Z,60.79
2023-08-28T05:17:42.295Z,60.28
2023-08-28T05:20:10.915Z,60.92
2023-08-28T05:22:38.839Z,60.07
2023-08-28T05:25:06.717Z,61.08
2023-08-28T05:27:34.417Z,59.71
2023-08-28T05:30:04.244Z,59.66
2023-08-28T05:32:32.480Z,59.47
2023-08-28T05:35:00.628Z,59.06
2023-08-28T05:37:29.664Z,58.31
2023-08-28T05:39:57.380Z,58.73
2023-08-28T05:42:26.022Z,59.37
2023-08-28T05:44:53.887Z,58.39
2023-08-28T05:47:21.455Z,58.08
2023-08-28T05:49:49.120Z,58.21
2023-08-28T05:52:27.369Z,58.43
2023-08-28T05:54:57.676Z,56.89
2023-08-28T05:57:25.984Z,56.49
2023-08-28T05:59:53.849Z,56.59
2023-08-28T06:02:26.592Z,56.68
2023-08-28T06:05:20.210Z,56.23
2023-08-28T06:08:23.283Z,56.03
2023-08-28T06:10:51.880Z,55.67
2023-08-28T06:13:25.967Z,55.69
2023-08-28T06:20:56.613Z,54.02
2023-08-28T06:23:24.650Z,54.31
2023-08-28T06:25:52.356Z,54.91
2023-08-28T06:29:54.651Z,53.37
2023-08-28T06:32:22.776Z,53.37
2023-08-28T06:34:50.431Z,54.09
2023-08-28T06:37:18.049Z,53.84
2023-08-28T06:39:46.268Z,54.03
2023-08-28T06:42:14.310Z,53.31
2023-08-28T06:44:42.667Z,53.31
2023-08-28T06:47:10.676Z,52.92
2023-08-28T06:49:38.252Z,52.20
2023-08-28T06:57:19.716Z,53.22
2023-08-28T07:00:17.858Z,50.99
2023-08-28T07:03:07.958Z,52.37
2023-08-28T07:05:54.956Z,52.75
2023-08-28T07:09:00.877Z,53.51
2023-08-28T07:11:48.584Z,52.77
2023-08-28T07:14:57.233Z,52.19
2023-08-28T07:17:37.303Z,52.91
2023-08-28T07:20:29.136Z,50.40
2023-08-28T07:23:06.535Z,49.87
2023-08-28T07:26:22.066Z,51.45
2023-08-28T07:29:02.308Z,51.06
2023-08-28T07:31:48.012Z,50.77
2023-08-28T07:34:38.942Z,49.45
2023-08-28T07:37:22.211Z,49.78
2023-08-28T07:40:14.250Z,51.37
2023-08-28T07:43:16.698Z,50.60
2023-08-28T07:45:45.006Z,50.08
2023-08-28T07:48:33.990Z,50.83
2023-08-28T07:51:02.043Z,51.99
2023-08-28T07:53:45.228Z,52.03
2023-08-28T07:56:22.483Z,51.10
2023-08-28T07:58:50.486Z,50.17
2023-08-28T08:01:24.381Z,51.75
2023-08-28T08:04:27.922Z,51.75
2023-08-28T08:07:09.340Z,49.63
2023-08-28T08:09:51.470Z,49.86
2023-08-28T08:12:19.611Z,49.04
2023-08-28T08:14:49.620Z,49.56
2023-08-28T08:17:19.961Z,50.77
2023-08-28T08:19:54.749Z,50.75
2023-08-28T08:22:23.039Z,50.83
2023-08-28T08:24:51.160Z,51.37
2023-08-28T08:27:19.774Z,50.90
2023-08-28T08:30:10.948Z,50.83
2023-08-28T08:32:53.284Z,49.52
2023-08-28T08:35:22.527Z,49.33
2023-08-28T08:37:54.325Z,48.66
2023-08-28T08:40:26.192Z,49.85
2023-08-28T08:42:57.779Z,48.69
2023-08-28T08:45:29.884Z,48.23
2023-08-28T08:48:01.980Z,48.46
2023-08-28T08:50:36.674Z,47.50
2023-08-28T08:53:13.240Z,47.91
2023-08-28T08:55:47.673Z,47.73
2023-08-28T08:58:17.034Z,47.84
2023-08-28T09:00:45.454Z,47.65
2023-08-28T09:03:15.933Z,47.61
2023-08-28T09:07:19.424Z,46.96
2023-08-28T09:10:00.246Z,46.81
2023-08-28T09:12:52.564Z,46.38
2023-08-28T09:15:40.595Z,45.86
2023-08-28T09:18:39.155Z,45.65
2023-08-28T09:21:18.417Z,46.37
2023-08-28T09:24:11.180Z,44.62
2023-08-28T09:26:54.308Z,43.90
2023-08-28T09:29:45.405Z,44.67
2023-08-28T09:32:29.852Z,44.04
2023-08-28T09:35:22.175Z,44.61
2023-08-28T09:38:00.069Z,42.90
2023-08-28T09:40:48.030Z,43.59
2023-08-28T09:43:42.975Z,43.31
2023-08-28T09:46:57.014Z,43.03
2023-08-28T09:49:26.393Z,43.73
2023-08-28T09:52:25.963Z,41.61
2023-08-28T09:55:06.752Z,41.74
2023-08-28T09:58:09.301Z,41.79
2023-08-28T10:00:41.547Z,40.75
2023-08-28T10:03:13.265Z,40.27
2023-08-28T10:05:45.811Z,39.80
2023-08-28T10:08:18.421Z,39.27
2023-08-28T10:11:02.458Z,39.08
2023-08-28T10:14:08.106Z,39.83
2023-08-28T10:17:06.202Z,39.07
2023-08-28T10:19:59.829Z,38.96
2023-08-28T10:22:39.844Z,37.23
2023-08-28T10:25:32.211Z,36.93
2023-08-28T10:28:12.750Z,37.63
2023-08-28T10:30:58.778Z,36.27
2023-08-28T10:33:38.987Z,37.18
2023-08-28T10:36:40.929Z,36.34
2023-08-28T10:39:01.957Z,36.11
2023-08-28T10:41:52.136Z,35.08
2023-08-28T10:44:24.899Z,35.13
2023-08-28T10:46:53.278Z,34.77
2023-08-28T10:49:21.853Z,35.26
2023-08-28T10:52:14.020Z,34.37
2023-08-28T10:54:44.537Z,34.08
2023-08-28T10:57:33.582Z,33.92
2023-08-28T11:00:19.540Z,35.52
2023-08-28T11:03:19.683Z,34.64
2023-08-28T11:06:39.636Z,33.77
2023-08-28T11:09:40.467Z,33.08
2023-08-28T11:12:45.373Z,32.50
2023-08-28T11:15:42.659Z,32.20
2023-08-28T11:18:29.861Z,32.80
2023-08-28T11:21:24.983Z,32.83
2023-08-28T11:23:55.400Z,33.31
2023-08-28T11:26:47.027Z,31.91
2023-08-28T11:29:28.984Z,32.40
2023-08-28T11:32:22.424Z,32.68
2023-08-28T11:35:06.863Z,32.72
2023-08-28T11:37:40.795Z,31.29
2023-08-28T11:40:22.012Z,31.93
2023-08-28T11:43:16.522Z,30.79
2023-08-28T11:45:44.599Z,31.78
2023-08-28T11:48:38.543Z,31.26
2023-08-28T11:51:08.653Z,30.61
2023-08-28T11:53:56.730Z,31.46
2023-08-28T11:56:24.997Z,30.61
2023-08-28T11:59:15.596Z,31.51
2023-08-28T12:01:48.207Z,29.92
2023-08-28T12:04:43.555Z,29.84
2023-08-28T12:07:28.974Z,30.23
2023-08-28T12:10:22.714Z,29.19
2023-08-28T12:13:02.415Z,29.91
2023-08-28T12:15:50.996Z,30.18
2023-08-28T12:18:42.337Z,29.84
2023-08-28T12:21:42.589Z,29.85
2023-08-28T12:24:28.126Z,30.09
2023-08-28T12:27:28.500Z,30.25
2023-08-28T12:30:19.841Z,28.57
2023-08-28T12:33:11.087Z,28.71
2023-08-28T12:36:05.388Z,28.98
2023-08-28T12:38:50.107Z,29.04
2023-08-28T12:41:36.302Z,28.48
2023-08-28T12:44:15.356Z,28.52
2023-08-28T12:46:57.185Z,29.34
2023-08-28T12:49:33.371Z,28.19
2023-08-28T12:52:02.908Z,28.41
2023-08-28T12:54:31.277Z,27.58
2023-08-28T12:56:59.079Z,27.64
2023-08-28T12:59:28.470Z,26.52
2023-08-28T13:02:01.993Z,27.99
2023-08-28T13:04:34.865Z,28.67
2023-08-28T13:07:06.405Z,27.81
2023-08-28T13:09:35.074Z,28.19
2023-08-28T13:12:11.242Z,27.37
2023-08-28T13:14:39.853Z,27.51
2023-08-28T13:17:08.699Z,27.45
2023-08-28T13:20:03.141Z,27.95
2023-08-28T13:22:31.304Z,28.27
2023-08-28T13:24:59.601Z,28.59
2023-08-28T13:27:27.810Z,26.90
2023-08-28T13:30:00.935Z,25.72
2023-08-28T13:32:29.422Z,26.76
2023-08-28T13:35:17.973Z,24.51
2023-08-28T13:37:46.624Z,25.24
2023-08-28T13:40:26.962Z,23.88
2023-08-28T13:42:55.601Z,24.09
2023-08-28T13:45:32.377Z,24.48
2023-08-28T13:48:01.009Z,24.38
2023-08-28T13:50:34.170Z,25.18
2023-08-28T13:53:02.622Z,24.35
2023-08-28T13:55:31.543Z,25.95
2023-08-28T13:58:08.191Z,26.56
2023-08-28T14:00:36.638Z,26.14
2023-08-28T14:03:08.196Z,25.52
2023-08-28T14:05:36.513Z,25.87
2023-08-28T14:08:04.669Z,25.35
2023-08-28T14:10:39.034Z,25.00
2023-08-28T14:13:26.376Z,24.83
2023-08-28T14:16:00.016Z,24.45
2023-08-28T14:18:28.195Z,24.99
2023-08-28T14:20:57.148Z,24.90
2023-08-28T14:23:48.465Z,24.84
2023-08-28T14:26:16.872Z,26.03
2023-08-28T14:28:46.069Z,24.74
2023-08-28T14:31:13.963Z,24.94
2023-08-28T14:33:42.053Z,24.83
2023-08-28T14:36:12.385Z,25.75
2023-08-28T14:38:40.039Z,25.32
2023-08-28T14:41:10.140Z,25.58
2023-08-28T14:44:07.053Z,25.38
2023-08-28T14:46:46.534Z,25.15
2023-08-28T14:49:38.041Z,25.59
2023-08-28T14:52:17.421Z,25.51
2023-08-28T14:55:09.293Z,24.10
2023-08-28T14:57:50.245Z,23.99
2023-08-28T15:00:43.116Z,24.05
2023-08-28T15:03:37.216Z,23.94
2023-08-28T15:06:05.908Z,23.82
2023-08-28T15:08:34.538Z,23.11
2023-08-28T15:11:02.510Z,23.10
2023-08-28T15:13:54.186Z,22.91
2023-08-28T15:16:33.312Z,23.19
2023-08-28T15:19:26.698Z,22.81
2023-08-28T15:22:06.235Z,23.82
2023-08-28T15:24:57.146Z,23.80
2023-08-28T15:27:36.516Z,23.80
2023-08-28T15:30:31.315Z,23.95
2023-08-28T15:33:08.114Z,23.98
2023-08-28T15:35:55.763Z,24.24
2023-08-28T15:38:35.069Z,24.03
2023-08-28T15:41:40.749Z,24.91
2023-08-28T15:44:12.299Z,24.50
2023-08-28T15:46:40.702Z,24.96
2023-08-28T15:49:20.408Z,25.94
2023-08-28T15:52:23.109Z,25.74
2023-08-28T15:54:55.296Z,26.09
2023-08-28T15:57:50.158Z,27.51
2023-08-28T16:00:18.369Z,28.38
2023-08-28T16:02:47.588Z,27.61
2023-08-28T16:05:15.736Z,28.08
2023-08-28T16:07:53.244Z,29.53
2023-08-28T16:10:20.820Z,29.89
2023-08-28T16:12:48.476Z,30.05
2023-08-28T16:15:18.823Z,30.47
2023-08-28T16:17:46.928Z,30.89
2023-08-28T16:20:14.467Z,32.03
2023-08-28T16:22:43.092Z,30.12
2023-08-28T16:25:20.301Z,30.20
2023-08-28T16:27:48.486Z,32.34
2023-08-28T16:30:16.380Z,32.17
2023-08-28T16:32:43.965Z,32.08
2023-08-28T16:35:32.582Z,32.67
2023-08-28T16:38:00.809Z,34.67
2023-08-28T16:40:33.252Z,34.83
2023-08-28T16:43:01.278Z,35.51
2023-08-28T16:45:41.947Z,35.60
2023-08-28T16:48:10.160Z,36.29
2023-08-28T16:50:39.771Z,37.03
2023-08-28T16:53:34.729Z,37.15
2023-08-28T16:56:03.393Z,37.30
2023-08-28T16:58:50.906Z,37.27
2023-08-28T17:01:26.344Z,37.82
2023-08-28T17:04:34.290Z,38.26
2023-08-28T17:07:12.415Z,38.65
2023-08-28T17:09:48.921Z,39.18
2023-08-28T17:12:16.521Z,39.91
2023-08-28T17:14:48.505Z,40.32
2023-08-28T17:17:36.107Z,40.62
2023-08-28T17:20:08.441Z,40.66
2023-08-28T17:22:37.264Z,40.80
2023-08-28T17:25:20.371Z,40.65
2023-08-28T17:28:02.163Z,40.79
2023-08-28T17:30:46.128Z,40.93
2023-08-28T17:33:15.037Z,41.06
2023-08-28T17:36:21.451Z,41.22
2023-08-28T17:38:55.231Z,41.49
2023-08-28T17:41:54.814Z,41.68
2023-08-28T17:44:42.394Z,41.87
2023-08-28T17:47:27.261Z,42.68
2023-08-28T17:50:20.259Z,43.12
2023-08-28T17:52:59.495Z,43.05
2023-08-28T17:55:50.047Z,43.49
2023-08-28T17:58:18.602Z,43.84
2023-08-28T18:00:48.218Z,44.33
2023-08-28T18:03:32.725Z,43.86
2023-08-28T18:06:04.973Z,43.91
2023-08-28T18:08:54.361Z,43.92
2023-08-28T18:11:33.858Z,44.13
2023-08-28T18:14:20.634Z,44.39
2023-08-28T18:17:13.728Z,45.30
2023-08-28T18:19:56.204Z,45.55
2023-08-28T18:22:47.162Z,46.11
2023-08-28T18:25:26.438Z,46.60
2023-08-28T18:28:18.154Z,46.37
2023-08-28T18:30:57.433Z,46.31
2023-08-28T18:33:49.129Z,46.70
2023-08-28T18:36:29.739Z,47.18
2023-08-28T18:39:22.076Z,47.32
2023-08-28T18:42:08.904Z,47.35
2023-08-28T18:44:52.210Z,47.54
2023-08-28T18:47:31.410Z,47.67
2023-08-28T18:50:23.881Z,47.67
2023-08-28T18:53:04.242Z,47.29
2023-08-28T18:55:56.529Z,46.56
2023-08-28T18:58:36.349Z,42.06
2023-08-28T19:01:18.426Z,41.39
2023-08-28T19:04:01.091Z,39.49
2023-08-28T19:06:51.933Z,38.83
2023-08-28T19:09:53.509Z,38.35
2023-08-28T19:12:23.235Z,37.87
2023-08-28T19:14:53.846Z,37.87
2023-08-28T19:17:25.710Z,37.46
2023-08-28T19:19:56.970Z,37.45
2023-08-28T19:27:24.219Z,36.82
2023-08-28T19:29:52.773Z,36.82
2023-08-28T19:35:27.230Z,35.49
2023-08-28T19:37:55.771Z,35.49
2023-08-28T19:40:23.632Z,36.19
2023-08-28T19:42:51.814Z,36.32
2023-08-28T19:45:24.413Z,36.38
2023-08-28T19:49:12.485Z,36.82
2023-08-28T19:51:40.713Z,36.82
2023-08-28T19:54:10.675Z,36.88
2023-08-28T19:56:39.087Z,36.32
2023-08-28T20:01:33.546Z,36.81
2023-08-28T20:04:19.153Z,36.22
2023-08-28T20:06:50.472Z,35.91
2023-08-28T20:11:45.477Z,35.61
2023-08-28T20:14:13.556Z,35.42
2023-08-28T20:16:41.979Z,35.01
2023-08-28T20:19:10.970Z,34.88
2023-08-28T20:22:00.384Z,34.71
2023-08-28T20:26:57.226Z,34.69
2023-08-28T20:32:29.670Z,34.48
2023-08-28T20:35:29.424Z,34.22
2023-08-28T20:37:57.399Z,33.51
2023-08-28T20:40:39.814Z,34.42
2023-08-28T20:43:27.636Z,34.20
2023-08-28T20:45:58.831Z,33.83
2023-08-28T20:48:44.570Z,35.51
2023-08-28T20:51:20.451Z,36.11
2023-08-28T20:54:03.535Z,35.22
2023-08-28T20:57:04.423Z,35.58
2023-08-28T20:59:51.900Z,37.98
2023-08-28T21:02:25.668Z,40.17
2023-08-28T21:04:55.250Z,40.55
2023-08-28T21:07:24.288Z,41.57
2023-08-28T21:09:58.365Z,41.73
2023-08-28T21:12:45.847Z,42.53
2023-08-28T21:15:35.278Z,42.95
2023-08-28T21:18:19.411Z,45.48
2023-08-28T21:21:27.203Z,45.19
2023-08-28T21:24:17.296Z,45.35
2023-08-28T21:27:25.187Z,46.12
2023-08-28T21:30:08.329Z,45.98
2023-08-28T21:32:57.240Z,46.00
2023-08-28T21:35:39.481Z,46.79
2023-08-28T21:38:31.057Z,46.56
2023-08-28T21:41:15.413Z,46.61
2023-08-28T21:44:12.857Z,47.01
2023-08-28T21:46:45.299Z,47.71
2023-08-28T21:49:43.392Z,47.43
2023-08-28T21:57:04.734Z,48.75
2023-08-28T21:59:52.065Z,49.86
2023-08-28T22:07:19.396Z,49.58
2023-08-28T22:10:08.323Z,50.04
2023-08-28T22:17:07.279Z,50.89
2023-08-28T22:19:58.281Z,51.68
2023-08-28T22:22:27.515Z,53.14
2023-08-28T22:25:24.132Z,54.62
2023-08-28T22:28:01.828Z,54.90
2023-08-28T22:30:33.004Z,57.31
2023-08-28T22:33:01.542Z,60.08
2023-08-28T22:35:30.459Z,59.34
2023-08-28T22:38:20.603Z,60.06
2023-08-28T22:40:48.121Z,60.68
2023-08-28T22:43:16.136Z,62.28
2023-08-28T22:45:45.350Z,61.72
2023-08-28T22:48:55.690Z,61.83
2023-08-28T22:51:25.779Z,62.70
2023-08-28T22:54:17.614Z,62.09
2023-08-28T22:56:57.598Z,63.21
2023-08-28T22:59:37.305Z,63.24
2023-08-28T23:02:05.324Z,62.15
2023-08-28T23:04:33.298Z,60.17
2023-08-28T23:07:00.783Z,61.02
2023-08-28T23:09:28.322Z,64.05
2023-08-28T23:11:56.159Z,63.62
2023-08-28T23:14:23.666Z,63.20
2023-08-28T23:16:51.224Z,61.16
2023-08-28T23:19:19.975Z,61.66
2023-08-28T23:21:47.776Z,61.55
2023-08-28T23:24:15.336Z,61.51
2023-08-28T23:26:43.167Z,61.38
2023-08-28T23:29:10.732Z,62.13
2023-08-28T23:31:38.269Z,61.65
2023-08-28T23:34:07.089Z,60.93
2023-08-28T23:36:37.443Z,61.72
2023-08-28T23:39:08.858Z,62.68
2023-08-28T23:41:36.709Z,61.75
2023-08-28T23:44:04.412Z,61.12
2023-08-28T23:46:31.922Z,61.29
2023-08-28T23:49:01.023Z,61.92
2023-08-28T23:51:33.261Z,62.27
2023-08-28T23:54:24.322Z,62.29
2023-08-28T23:57:03.709Z,62.38
2023-08-28T23:59:31.675Z,62.34
